Flight Track Log - Related Links

Times and Time Zones

All times are in EDT time to prevent confusion due to time zone crossing. See the UAL452 flight status page for this flight to view local times or setup timezone preferences in your user account.

Time Position Orientation Groundspeed Altitude Reporting Facility
EDT Latitude Longitude Course Direction KTS MPH feet Rate Location/Type
Sun 03:15:27 PM 39.9333 -104.6833 85° East 202 232 7,100  Level Denver TRACON
Sun 03:16:28 PM 39.9500 -104.6000 75° East 247 284 9,500 1,915 Climbing Denver TRACON
Sun 03:17:01 PM 39.9500 -104.5469 90° East 254 292 10,100 379 Climbing Denver Center
Sun 03:18:00 PM 39.8667 -103.9952 90° East  Level FlightAware Approximate
Sun 03:18:03 PM 39.9528 -104.4408 88° East 289 333 10,100  Level Denver Center
Sun 03:19:00 PM 39.8667 -103.8270 90° East  Level FlightAware Approximate
Sun 03:19:05 PM 39.9397 -104.3306 99° East 313 360 11,000  Level Denver Center
Sun 03:20:00 PM 39.8848 -103.6623 85° East  Level FlightAware Approximate
Sun 03:20:07 PM 39.9117 -104.2031 106° East 341 392 12,100  Level Denver Center
Sun 03:21:09 PM 39.8956 -104.0778 99° East 351 404 14,000 2,177 Climbing Denver Center
Sun 03:22:11 PM 39.8383 -103.9558 121° Southeast 369 425 16,600 2,226 Climbing Denver Center
Sun 03:23:13 PM 39.7844 -103.8383 121° Southeast 388 447 18,600 2,000 Climbing Denver Center
Sun 03:24:14 PM 39.7717 -103.6936 97° East 384 442 20,700 1,854 Climbing Denver Center
Sun 03:25:16 PM 39.7947 -103.5506 78° East 406 467 22,400 1,584 Climbing Denver Center
Sun 03:26:19 PM 39.8167 -103.4019 79° East 417 480 24,000 1,536 Climbing Denver Center
Sun 03:27:21 PM 39.8408 -103.2481 78° East 433 498 25,600 1,403 Climbing Denver Center
Sun 03:28:23 PM 39.8622 -103.0914 80° East 437 503 26,900 1,415 Climbing Denver Center
Sun 03:29:24 PM 39.8736 -102.9286 85° East 448 516 28,500 1,512 Climbing Denver Center
Sun 03:30:26 PM 39.8817 -102.7303 87° East 458 527 30,000 1,597 Climbing Denver Center
Sun 03:31:28 PM 39.8897 -102.5533 87° East 461 531 31,800 1,452 Climbing Denver Center
Sun 03:32:30 PM 39.8975 -102.3956 86° East 460 529 33,000 581 Climbing Denver Center
Sun 03:33:32 PM 39.9042 -102.2361 87° East 460 529 33,000  Level Denver Center
Sun 03:34:33 PM 39.9133 -102.0500 86° East 461 531 33,000  Level Denver Center
Sun 03:35:35 PM 39.9194 -101.8919 87° East 459 528 33,000  Level Denver Center
Sun 03:36:37 PM 39.9278 -101.7089 87° East 457 526 33,000  Level Denver Center
Sun 03:37:39 PM 39.9344 -101.5525 87° East 454 522 33,000  Level Denver Center
Sun 03:38:41 PM 39.9419 -101.3628 87° East 471 542 33,000  Level Denver Center
Sun 03:39:42 PM 39.9481 -101.1953 87° East 481 554 33,000  Level Denver Center
Sun 03:40:44 PM 39.9561 -100.9994 87° East 486 559 33,000  Level Denver Center
Sun 03:41:46 PM 39.9619 -100.8342 87° East 485 558 33,000  Level Denver Center
Sun 03:42:48 PM 39.9692 -100.6422 87° East 481 554 33,000  Level Denver Center
Sun 03:43:49 PM 39.9739 -100.4767 88° East 481 554 33,000  Level Denver Center
Sun 03:44:51 PM 39.9794 -100.2850 88° East 480 552 33,000  Level Denver Center
Sun 03:45:53 PM 39.9847 -100.1072 88° East 484 557 33,000  Level Denver Center
Sun 03:46:55 PM 39.9897 -99.9333 88° East 483 556 33,000  Level Denver Center
Sun 03:47:56 PM 39.9944 -99.7572 88° East 483 556 33,000  Level Denver Center
Sun 03:48:58 PM 39.9997 -99.5844 88° East 483 556 33,000  Level Denver Center
Sun 03:50:00 PM 40.0036 -99.4086 88° East 483 556 33,000  Level Denver Center
Sun 03:51:01 PM 40.0069 -99.2331 89° East 483 556 33,000  Level Denver Center
Sun 03:52:03 PM 40.0108 -99.0567 88° East 485 558 33,000  Level Denver Center
Sun 03:53:05 PM 40.0150 -98.8442 88° East 490 564 33,000  Level Denver Center
Sun 03:54:02 PM 40.0169 -98.7031 89° East 487 560 33,000  Level Minneapolis Center
Sun 03:55:04 PM 40.0206 -98.5256 88° East 488 562 33,000  Level Minneapolis Center
Sun 03:56:05 PM 40.0231 -98.3106 89° East 491 565 33,000  Level Minneapolis Center
Sun 03:57:07 PM 40.0247 -98.1319 89° East 491 565 33,000  Level Minneapolis Center
Sun 03:58:09 PM 40.0261 -97.9528 89° East 492 566 33,000  Level Minneapolis Center
Sun 03:59:10 PM 40.0289 -97.7725 89° East 494 568 33,000  Level Minneapolis Center
Sun 04:00:12 PM 40.0297 -97.5914 90° East 498 573 33,000  Level Minneapolis Center
Sun 04:01:13 PM 40.0317 -97.4092 89° East 499 574 33,000  Level Minneapolis Center
Sun 04:02:15 PM 40.0333 -97.2239 89° East 501 577 33,000  Level Minneapolis Center
Sun 04:03:17 PM 40.0339 -97.0408 90° East 503 579 33,000  Level Minneapolis Center
Sun 04:04:18 PM 40.0336 -96.8197 90° East 506 582 33,000  Level Minneapolis Center
Sun 04:05:20 PM 40.0331 -96.6339 90° East 509 586 33,000  Level Minneapolis Center
Sun 04:06:22 PM 40.0331 -96.4483 90° East 510 587 33,000  Level Minneapolis Center
Sun 04:07:23 PM 40.0325 -96.2608 90° East 513 590 33,000 49 Level Minneapolis Center
Sun 04:08:25 PM 40.0308 -96.0736 91° East 513 590 33,100 871 Climbing Minneapolis Center
Sun 04:09:27 PM 40.0303 -95.8858 90° East 516 594 34,800 927 Climbing Minneapolis Center
Sun 04:10:28 PM 40.0289 -95.6992 90° East 516 594 35,000 88 Climbing Minneapolis Center
Sun 04:11:43 PM 40.0267 -95.4369 91° East 522 601 35,000  Level Kansas City Center
Sun 04:12:45 PM 40.0244 -95.2558 91° East 524 603 35,000  Level Kansas City Center
Sun 04:13:47 PM 40.0206 -95.0431 91° East 524 603 35,000  Level Kansas City Center
Sun 04:14:49 PM 40.0186 -94.8600 91° East 524 603 35,000  Level Kansas City Center
Sun 04:15:51 PM 40.0139 -94.6456 92° East 524 603 35,000  Level Kansas City Center
Sun 04:16:53 PM 40.0103 -94.4631 91° East 525 604 35,000  Level Kansas City Center
Sun 04:17:55 PM 40.0058 -94.2483 91° East 525 604 35,000  Level Kansas City Center
Sun 04:18:57 PM 40.0011 -94.0686 92° East 525 604 35,000  Level Kansas City Center
Sun 04:19:59 PM 40.0061 -93.8717 88° East 541 623 35,000  Level Kansas City Center
Sun 04:21:01 PM 40.0239 -93.6819 83° East 538 619 35,000  Level Kansas City Center
Sun 04:22:03 PM 40.0408 -93.4489 85° East 539 620 35,000  Level Kansas City Center
Sun 04:23:05 PM 40.0572 -93.2544 84° East 540 621 35,000  Level Kansas City Center
Sun 04:24:07 PM 40.0714 -93.0603 84° East 541 623 35,000  Level Kansas City Center
Sun 04:25:09 PM 40.0864 -92.8425 85° East 549 632 35,000  Level Kansas City Center
Sun 04:26:11 PM 40.0986 -92.6522 85° East 548 631 35,000  Level Kansas City Center
Sun 04:27:13 PM 40.1161 -92.4289 84° East 550 633 35,000  Level Kansas City Center
Sun 04:28:16 PM 40.1272 -92.2400 86° East 551 634 35,000  Level Kansas City Center
Sun 04:29:18 PM 40.1397 -92.0403 85° East 555 639 35,000  Level Kansas City Center
Sun 04:30:20 PM 40.1542 -91.8000 85° East 558 642 35,000  Level Kansas City Center
Sun 04:31:22 PM 40.1658 -91.5981 86° East 559 643 35,000  Level Kansas City Center
Sun 04:32:24 PM 40.1775 -91.3958 86° East 561 646 35,000  Level Kansas City Center
Sun 04:33:26 PM 40.1900 -91.1939 85° East 561 646 35,000  Level Kansas City Center
Sun 04:34:28 PM 40.2003 -90.9925 86° East 561 646 35,000  Level Kansas City Center
Sun 04:35:30 PM 40.2131 -90.7625 86° East 561 646 35,000  Level Kansas City Center
Sun 04:36:32 PM 40.2219 -90.5606 87° East 560 644 35,000  Level Kansas City Center
Sun 04:38:00 PM 40.2347 -90.2794 87° East 558 642 35,000 119 Level Chicago Center
Sun 04:39:03 PM 40.2419 -90.0392 88° East 558 642 35,300 816 Climbing Chicago Center
Sun 04:40:05 PM 40.2472 -89.8383 88° East 558 642 36,700 823 Climbing Chicago Center
Sun 04:41:07 PM 40.2528 -89.6400 88° East 555 639 37,000 145 Climbing Chicago Center
Sun 04:42:09 PM 40.2586 -89.4414 88° East 554 638 37,000  Level Chicago Center
Sun 04:43:11 PM 40.2647 -89.2411 88° East 554 638 37,000  Level Chicago Center
Sun 04:44:13 PM 40.2717 -89.0003 88° East 554 638 37,000  Level Chicago Center
Sun 04:45:15 PM 40.2764 -88.7969 88° East 557 641 37,000  Level Chicago Center
Sun 04:46:17 PM 40.2797 -88.5942 89° East 558 642 37,000  Level Chicago Center
Sun 04:47:19 PM 40.2819 -88.3944 89° East 558 642 37,000  Level Chicago Center
Sun 04:48:22 PM 40.2861 -88.1519 89° East 558 642 37,000  Level Chicago Center
Sun 04:49:24 PM 40.2889 -87.9483 89° East 560 644 37,000  Level Chicago Center
Sun 04:50:26 PM 40.2919 -87.7439 89° East 562 647 37,000  Level Chicago Center
Sun 04:51:28 PM 40.2936 -87.5419 89° East 562 647 37,000  Level Chicago Center
Sun 04:52:30 PM 40.2961 -87.3247 89° East 560 644 37,000  Level Chicago Center
Sun 04:53:32 PM 40.2989 -87.1197 89° East 561 646 37,000  Level Chicago Center
Sun 04:54:34 PM 40.3006 -86.9136 89° East 562 647 37,000  Level Chicago Center
Sun 04:55:36 PM 40.3022 -86.7081 89° East 562 647 37,000  Level Chicago Center
Sun 04:56:38 PM 40.3031 -86.5019 90° East 563 648 37,000  Level Chicago Center
Sun 04:57:41 PM 40.3047 -86.2514 89° East 568 654 37,000  Level Chicago Center
Sun 04:58:43 PM 40.3050 -86.0431 90° East 568 654 37,000  Level Chicago Center
Sun 04:59:45 PM 40.3044 -85.8350 90° East 568 654 37,000  Level Chicago Center
Sun 05:00:47 PM 40.3039 -85.6261 90° East 570 656 37,000  Level Chicago Center
Sun 05:01:49 PM 40.3028 -85.4181 90° East 571 657 37,000  Level Chicago Center
Sun 05:02:51 PM 40.3014 -85.2092 90° East 572 658 37,000  Level Chicago Center
Sun 05:03:53 PM 40.2994 -84.9603 91° East 571 657 37,000  Level Chicago Center
Sun 05:04:55 PM 40.3000 -84.7550 90° East 570 656 37,000  Level Chicago Center
Sun 05:05:58 PM 40.2978 -84.5489 91° East 569 655 37,000  Level Chicago Center
Sun 05:06:31 PM 40.2919 -84.4394 94° East 567 652 37,000 67 Level Cleveland Center
Sun 05:07:28 PM 40.2897 -84.2336 91° East 568 654 37,100 500 Climbing Indianapolis Center
Sun 05:08:31 PM 40.2858 -84.0286 91° East 566 651 38,000 720 Climbing Indianapolis Center
Sun 05:09:33 PM 40.2725 -83.8211 95° East 566 651 38,600 484 Climbing Indianapolis Center
Sun 05:10:35 PM 40.2564 -83.6136 96° East 567 652 39,000 194 Climbing Indianapolis Center
Sun 05:11:37 PM 40.2356 -83.4069 97° East 567 652 39,000  Level Indianapolis Center
Sun 05:12:39 PM 40.2036 -83.2042 102° East 567 652 39,000  Level Indianapolis Center
Sun 05:13:41 PM 40.1672 -83.0017 103° East 567 652 39,000  Level Indianapolis Center
Sun 05:14:43 PM 40.1239 -82.7583 103° East 567 652 39,000  Level Indianapolis Center
Sun 05:15:45 PM 40.0861 -82.5561 104° East 568 654 39,000  Level Indianapolis Center
Sun 05:16:47 PM 40.0500 -82.3547 103° East 568 654 39,000  Level Indianapolis Center
Sun 05:17:49 PM 40.0108 -82.1528 104° East 569 655 39,000  Level Indianapolis Center
Sun 05:18:51 PM 39.9742 -81.9528 103° East 569 655 39,000  Level Indianapolis Center
Sun 05:19:53 PM 39.9361 -81.7528 104° East 569 655 39,000  Level Indianapolis Center
Sun 05:20:56 PM 39.8892 -81.5142 104° East 569 655 39,000 -48 Level Indianapolis Center
Sun 05:21:58 PM 39.8497 -81.3153 104° East 569 655 38,900 -871 Descending Indianapolis Center
Sun 05:23:00 PM 39.8092 -81.1139 105° East 569 655 37,200 -1,500 Descending Indianapolis Center
Sun 05:24:02 PM 39.7681 -80.9114 105° East 571 657 35,800 -1,395 Descending Indianapolis Center
Sun 05:25:09 PM 39.7256 -80.6967 104° East 580 667 34,200 -1,256 Descending Cleveland Center
Sun 05:26:11 PM 39.6769 -80.4519 104° East 588 677 33,100 -581 Descending Cleveland Center
Sun 05:27:13 PM 39.6364 -80.2522 105° East 585 673 33,000 -677 Descending Cleveland Center
Sun 05:28:15 PM 39.5978 -80.0550 104° East 574 661 31,700 -1,452 Descending Cleveland Center
Sun 05:29:17 PM 39.5589 -79.8617 105° East 566 651 30,000 -1,597 Descending Cleveland Center
Sun 05:30:19 PM 39.5261 -79.6783 103° East 536 617 28,400 -2,032 Descending Cleveland Center
Sun 05:31:21 PM 39.4869 -79.4758 104° East 489 563 25,800 -2,064 Descending Cleveland Center
Sun 05:32:24 PM 39.4578 -79.3139 103° East 471 542 24,100 -1,008 Descending Cleveland Center
Sun 05:33:26 PM 39.4303 -79.1636 103° East 438 504 23,700 -871 Descending Cleveland Center
Sun 05:34:28 PM 39.4067 -79.0222 102° East 411 473 22,300 -1,597 Descending Cleveland Center
Sun 05:35:30 PM 39.3814 -78.8831 103° East 387 445 20,400 -2,491 Descending Cleveland Center
Sun 05:36:14 PM 39.3631 -78.7806 103° East 383 441 17,900 -2,824 Descending Washington Center
Sun 05:37:12 PM 39.3414 -78.6536 102° East 366 421 15,600 -1,664 Descending Washington Center
Sun 05:38:13 PM 39.3194 -78.5347 103° East 353 406 14,600 -1,623 Descending Washington Center
Sun 05:39:14 PM 39.2972 -78.4131 103° East 347 399 12,300 -1,563 Descending Washington Center
Sun 05:40:12 PM 39.2664 -78.3044 110° East 333 383 11,500 -1,017 Descending Washington Center
Sun 05:41:12 PM 39.2372 -78.2044 111° Southeast 319 367 10,300 -1,388 Descending Washington Center
Sun 05:42:13 PM 39.2250 -78.1019 99° East 293 337 8,700 -1,636 Descending Washington Center
Sun 05:43:13 PM 39.2247 -78.0056 90° East 281 323 7,000 -1,339 Descending Washington Center
Sun 05:44:14 PM 39.2350 -77.9175 81° East 262 302 6,000 -958 Descending Washington Center
Sun 05:45:12 PM 39.2425 -77.8456 82° East 243 280 5,100 -333 Descending Washington Center
Sun 05:47:14 PM 39.2667 -77.6667 80° East 219 252 5,000 -33 Descending Potomac TRACON
Sun 05:48:14 PM 39.2833 -77.6000 72° East 223 257 5,000 -99 Level Potomac TRACON
Sun 05:49:15 PM 39.2667 -77.5333 108° East 219 252 4,800 -694 Descending Potomac TRACON
Sun 05:50:15 PM 39.2167 -77.5000 153° Southeast 209 241 3,600 -900 Descending Potomac TRACON
Sun 05:51:15 PM 39.1667 -77.4667 153° Southeast 212 244 3,000 -425 Descending Potomac TRACON
Sun 05:52:22 PM 39.1000 -77.4500 169° South 212 244 2,700 -595 Descending Potomac TRACON
Sun 05:53:16 PM 39.0500 -77.4667 195° South 191 220 1,800 -900 Descending Potomac TRACON
Sun 05:54:22 PM 39.0000 -77.4667 180° South 138 159 900 -818 Descending Potomac TRACON
Sun 05:56:00 PM 38.9474 -77.4599 165° South  Level Estimated
Sun 06:03:00 PM 38.9474 -77.4599 165° South  Level Estimated

Login

Don't have an account? Register now (free) for customized features, flight alerts, and more!